createdAt,value
2023-04-03T00:01:36.637Z,102657.91
2023-04-03T00:04:07.015Z,102656.13
2023-04-03T00:06:36.250Z,102665.09
2023-04-03T00:09:03.698Z,102668.28
2023-04-03T00:11:30.818Z,102668.59
2023-04-03T00:13:58.479Z,102670.22
2023-04-03T00:16:25.523Z,102667.69
2023-04-03T00:18:52.498Z,102671.56
2023-04-03T00:21:19.500Z,102673.09
2023-04-03T00:23:46.747Z,102667.53
2023-04-03T00:26:16.520Z,102666.16
2023-04-03T00:28:43.568Z,102668.94
2023-04-03T00:31:28.550Z,102677.66
2023-04-03T00:33:55.563Z,102664.34
2023-04-03T00:36:22.625Z,102661.72
2023-04-03T00:38:49.637Z,102668.06
2023-04-03T00:41:16.598Z,102677.72
2023-04-03T00:43:46.567Z,102667.13
2023-04-03T00:46:13.654Z,102680.53
2023-04-03T00:48:50.495Z,102672.25
2023-04-03T00:51:34.393Z,102681.72
2023-04-03T00:54:06.480Z,102677.44
2023-04-03T00:56:38.599Z,102680.78
2023-04-03T00:59:11.875Z,102675.50
2023-04-03T01:01:45.740Z,102682.47
2023-04-03T01:04:39.557Z,102682.31
2023-04-03T01:07:31.702Z,102676.34
2023-04-03T01:10:02.041Z,102682.81
2023-04-03T01:12:46.811Z,102685.13
2023-04-03T01:15:31.294Z,102678.75
2023-04-03T01:18:16.936Z,102681.34
2023-04-03T01:21:29.735Z,102682.53
2023-04-03T01:24:17.186Z,102684.81
2023-04-03T01:26:45.556Z,102670.50
2023-04-03T01:29:23.950Z,102674.97
2023-04-03T01:32:00.553Z,102675.31
2023-04-03T01:34:37.988Z,102680.31
2023-04-03T01:37:05.089Z,102681.81
2023-04-03T01:39:32.038Z,102673.75
2023-04-03T01:42:00.323Z,102677.25
2023-04-03T01:44:27.515Z,102677.53
2023-04-03T01:46:54.425Z,102674.47
2023-04-03T01:49:21.374Z,102672.63
2023-04-03T01:51:48.294Z,102668.09
2023-04-03T01:54:15.589Z,102677.25
2023-04-03T01:56:42.587Z,102676.25
2023-04-03T01:59:09.626Z,102687.09
2023-04-03T02:01:37.342Z,102693.22
2023-04-03T02:04:04.475Z,102686.19
2023-04-03T02:06:31.575Z,102685.16
2023-04-03T02:08:58.525Z,102679.41
2023-04-03T02:11:25.820Z,102678.28
2023-04-03T02:13:52.788Z,102686.50
2023-04-03T02:16:19.778Z,102703.84
2023-04-03T02:18:46.807Z,102691.50
2023-04-03T02:21:13.729Z,102697.00
2023-04-03T02:23:40.786Z,102690.13
2023-04-03T02:26:17.252Z,102694.66
2023-04-03T02:28:44.699Z,102699.16
2023-04-03T02:31:12.168Z,102701.31
2023-04-03T02:33:46.056Z,102694.69
2023-04-03T02:36:13.021Z,102704.84
2023-04-03T02:38:40.292Z,102686.84
2023-04-03T02:41:19.301Z,102699.97
2023-04-03T02:44:00.599Z,102695.31
2023-04-03T02:46:30.779Z,102697.38
2023-04-03T02:49:03.650Z,102695.63
2023-04-03T02:51:37.048Z,102699.53
2023-04-03T02:54:06.379Z,102694.28
2023-04-03T02:56:42.103Z,102701.94
2023-04-03T02:59:12.406Z,102704.94
2023-04-03T03:01:59.050Z,102698.59
2023-04-03T03:04:35.490Z,102698.31
2023-04-03T03:07:17.368Z,102703.72
2023-04-03T03:10:09.271Z,102702.69
2023-04-03T03:12:36.760Z,102707.44
2023-04-03T03:15:10.205Z,102708.41
2023-04-03T03:17:46.766Z,102707.34
2023-04-03T03:20:19.949Z,102717.97
2023-04-03T03:22:47.013Z,102713.41
2023-04-03T03:25:15.429Z,102717.69
2023-04-03T03:27:49.544Z,102712.97
2023-04-03T03:30:16.645Z,102717.56
2023-04-03T03:32:56.289Z,102716.50
2023-04-03T03:35:23.273Z,102718.19
2023-04-03T03:37:50.463Z,102716.53
2023-04-03T03:40:18.192Z,102715.53
2023-04-03T03:43:02.801Z,102714.84
2023-04-03T03:45:29.991Z,102711.91
2023-04-03T03:47:56.973Z,102719.84
2023-04-03T03:50:24.161Z,102710.63
2023-04-03T03:52:51.428Z,102715.56
2023-04-03T03:55:18.593Z,102709.47
2023-04-03T03:57:45.663Z,102723.97
2023-04-03T04:00:13.239Z,102724.41
2023-04-03T04:02:40.490Z,102715.75
2023-04-03T04:05:07.958Z,102713.84
2023-04-03T04:07:34.894Z,102715.47
2023-04-03T04:10:02.176Z,102717.69
2023-04-03T04:12:29.254Z,102725.63
2023-04-03T04:14:56.231Z,102724.13
2023-04-03T04:17:23.316Z,102734.31
2023-04-03T04:19:50.510Z,102740.50
2023-04-03T04:22:17.468Z,102738.06
2023-04-03T04:24:44.381Z,102749.78
2023-04-03T04:27:11.444Z,102730.34
2023-04-03T04:29:38.413Z,102731.44
2023-04-03T04:32:05.917Z,102730.56
2023-04-03T04:34:33.096Z,102735.75
2023-04-03T04:37:00.404Z,102730.56
2023-04-03T04:39:27.524Z,102721.78
2023-04-03T04:41:54.452Z,102733.19
2023-04-03T04:44:21.594Z,102726.84
2023-04-03T04:46:48.573Z,102731.41
2023-04-03T04:49:15.648Z,102730.09
2023-04-03T04:51:51.706Z,102731.53
2023-04-03T04:54:19.499Z,102722.56
2023-04-03T04:56:46.414Z,102725.84
2023-04-03T04:59:13.625Z,102744.94
2023-04-03T05:01:41.318Z,102731.75
2023-04-03T05:04:08.465Z,102733.28
2023-04-03T05:06:36.160Z,102734.91
2023-04-03T05:09:03.640Z,102724.47
2023-04-03T05:11:31.281Z,102725.72
2023-04-03T05:13:58.335Z,102739.00
2023-04-03T05:16:25.362Z,102737.78
2023-04-03T05:18:52.355Z,102742.13
2023-04-03T05:21:28.948Z,102742.16
2023-04-03T05:23:56.666Z,102749.59
2023-04-03T05:26:23.769Z,102748.84
2023-04-03T05:28:50.745Z,102739.41
2023-04-03T05:31:17.831Z,102739.31
2023-04-03T05:33:44.846Z,102739.44
2023-04-03T05:36:11.906Z,102744.22
2023-04-03T05:38:39.182Z,102738.16
2023-04-03T05:41:06.690Z,102751.28
2023-04-03T05:43:35.604Z,102746.34
2023-04-03T05:46:02.553Z,102746.44
2023-04-03T05:48:42.491Z,102758.38
2023-04-03T05:51:29.319Z,102760.66
2023-04-03T05:54:45.048Z,102761.97
2023-04-03T05:57:12.980Z,102752.69
2023-04-03T05:59:40.538Z,102756.25
2023-04-03T06:02:08.235Z,102766.66
2023-04-03T06:04:44.831Z,102762.38
2023-04-03T06:07:21.538Z,102763.63
2023-04-03T06:09:49.850Z,102757.25
2023-04-03T06:12:17.275Z,102762.63
2023-04-03T06:14:45.269Z,102775.69
2023-04-03T06:17:13.284Z,102772.72
2023-04-03T06:19:40.533Z,102765.06
2023-04-03T06:22:07.782Z,102763.69
2023-04-03T06:24:34.780Z,102763.06
2023-04-03T06:27:01.883Z,102770.69
2023-04-03T06:29:28.987Z,102768.63
2023-04-03T06:31:56.562Z,102761.38
2023-04-03T06:34:23.760Z,102770.25
2023-04-03T06:36:51.713Z,102769.97
2023-04-03T06:39:23.071Z,102758.31
2023-04-03T06:41:51.975Z,102755.50
2023-04-03T06:44:19.119Z,102761.06
2023-04-03T06:46:50.181Z,102767.13
2023-04-03T06:49:17.408Z,102763.91
2023-04-03T06:51:55.660Z,102763.13
2023-04-03T06:54:43.313Z,102749.38
2023-04-03T06:57:39.028Z,102760.91
2023-04-03T07:00:08.365Z,102763.91
2023-04-03T07:02:35.738Z,102782.03
2023-04-03T07:05:03.190Z,102787.19
2023-04-03T07:07:30.849Z,102794.97
2023-04-03T07:09:57.873Z,102798.22
2023-04-03T07:12:25.132Z,102793.34
2023-04-03T07:14:52.128Z,102795.34
2023-04-03T07:17:19.174Z,102800.69
2023-04-03T07:19:46.509Z,102795.38
2023-04-03T07:22:14.009Z,102800.50
2023-04-03T07:24:41.376Z,102801.69
2023-04-03T07:27:09.500Z,102810.09
2023-04-03T07:29:36.823Z,102796.09
2023-04-03T07:32:05.024Z,102789.72
2023-04-03T07:34:32.718Z,102789.84
2023-04-03T07:37:01.215Z,102791.88
2023-04-03T07:39:29.041Z,102789.91
2023-04-03T07:41:59.122Z,102790.00
2023-04-03T07:44:26.404Z,102794.00
2023-04-03T07:46:53.376Z,102798.75
2023-04-03T07:49:20.500Z,102811.91
2023-04-03T07:51:47.766Z,102804.00
2023-04-03T07:54:14.983Z,102809.44
2023-04-03T07:56:43.798Z,102799.03
2023-04-03T07:59:19.401Z,102815.69
2023-04-03T08:01:49.534Z,102812.47
2023-04-03T08:04:16.751Z,102812.56
2023-04-03T08:06:47.309Z,102807.91
2023-04-03T08:09:16.526Z,102806.53
2023-04-03T08:11:44.208Z,102807.84
2023-04-03T08:14:18.758Z,102805.13
2023-04-03T08:16:48.461Z,102800.19
2023-04-03T08:19:26.243Z,102793.06
2023-04-03T08:21:55.796Z,102803.94
2023-04-03T08:24:22.856Z,102794.91
2023-04-03T08:26:59.606Z,102800.47
2023-04-03T08:29:26.977Z,102802.50
2023-04-03T08:31:56.966Z,102790.47
2023-04-03T08:34:24.078Z,102801.59
2023-04-03T08:36:51.400Z,102795.38
2023-04-03T08:39:21.535Z,102802.53
2023-04-03T08:41:49.131Z,102795.59
2023-04-03T08:44:37.520Z,102789.19
2023-04-03T08:47:31.433Z,102786.25
2023-04-03T08:50:06.412Z,102796.19
2023-04-03T08:52:43.278Z,102792.66
2023-04-03T08:55:28.818Z,102796.41
2023-04-03T08:58:34.523Z,102797.94
2023-04-03T09:01:19.903Z,102809.88
2023-04-03T09:03:58.572Z,102790.00
2023-04-03T09:06:33.701Z,102793.78
2023-04-03T09:09:41.919Z,102795.69
2023-04-03T09:12:41.401Z,102777.97
2023-04-03T09:15:39.194Z,102785.50
2023-04-03T09:18:34.216Z,102783.59
2023-04-03T09:21:18.476Z,102779.94
2023-04-03T09:24:11.050Z,102780.56
2023-04-03T09:27:17.370Z,102774.03
2023-04-03T09:29:53.428Z,102780.88
2023-04-03T09:32:32.441Z,102776.22
2023-04-03T09:35:57.866Z,102773.44
2023-04-03T09:38:37.247Z,102780.19
2023-04-03T09:41:30.877Z,102780.13
2023-04-03T09:43:58.079Z,102774.31
2023-04-03T09:46:34.081Z,102775.25
2023-04-03T09:49:23.241Z,102775.72
2023-04-03T09:52:47.588Z,102783.50
2023-04-03T09:55:53.154Z,102762.09
2023-04-03T09:59:12.250Z,102764.00
2023-04-03T10:01:51.790Z,102755.00
2023-04-03T10:04:20.848Z,102774.25
2023-04-03T10:06:54.651Z,102783.31
2023-04-03T10:09:49.803Z,102763.28
2023-04-03T10:13:21.747Z,102770.50
2023-04-03T10:16:05.770Z,102764.81
2023-04-03T10:19:19.417Z,102756.94
2023-04-03T10:22:43.529Z,102758.47
2023-04-03T10:26:01.544Z,102746.53
2023-04-03T10:33:37.033Z,102751.69
2023-04-03T10:37:24.544Z,102754.13
2023-04-03T10:44:33.650Z,102736.63
2023-04-03T10:47:12.322Z,102736.69
2023-04-03T10:51:29.673Z,102719.38
2023-04-03T10:59:07.794Z,102733.63
2023-04-03T11:02:25.315Z,102720.78
2023-04-03T11:05:46.950Z,102733.19
2023-04-03T11:09:12.708Z,102710.75
2023-04-03T11:13:14.321Z,102707.94
2023-04-03T11:19:54.863Z,102698.81
2023-04-03T11:29:09.685Z,102701.03
2023-04-03T11:32:07.918Z,102692.38
2023-04-03T11:34:48.902Z,102684.00
2023-04-03T11:37:37.030Z,102685.56
2023-04-03T11:40:29.472Z,102668.41
2023-04-03T11:43:42.355Z,102669.88
2023-04-03T11:46:13.415Z,102666.75
2023-04-03T11:48:50.098Z,102654.88
2023-04-03T11:51:36.309Z,102658.34
2023-04-03T11:54:45.148Z,102646.59
2023-04-03T11:58:03.461Z,102646.00
2023-04-03T12:00:48.557Z,102642.13
2023-04-03T12:03:30.942Z,102650.91
2023-04-03T12:06:17.597Z,102637.19
2023-04-03T12:08:49.142Z,102632.72
2023-04-03T12:11:31.826Z,102630.41
2023-04-03T12:13:58.795Z,102623.59
2023-04-03T12:16:30.015Z,102632.34
2023-04-03T12:19:26.620Z,102631.38
2023-04-03T12:22:00.357Z,102617.75
2023-04-03T12:24:40.538Z,102621.16
2023-04-03T12:27:35.378Z,102611.84
2023-04-03T12:30:05.449Z,102608.09
2023-04-03T12:32:43.403Z,102617.72
2023-04-03T12:35:40.267Z,102613.88
2023-04-03T12:38:37.649Z,102617.88
2023-04-03T12:41:18.305Z,102605.31
2023-04-03T12:44:11.961Z,102610.63
2023-04-03T12:46:45.258Z,102623.47
2023-04-03T12:49:31.473Z,102612.25
2023-04-03T12:51:59.829Z,102606.47
2023-04-03T12:54:42.500Z,102611.59
2023-04-03T12:57:22.912Z,102614.47
2023-04-03T12:59:50.203Z,102610.50
2023-04-03T13:02:32.042Z,102605.41
2023-04-03T13:05:10.048Z,102601.59
2023-04-03T13:07:45.781Z,102599.06
2023-04-03T13:10:20.654Z,102579.88
2023-04-03T13:13:08.843Z,102589.47
2023-04-03T13:15:49.901Z,102584.63
2023-04-03T13:18:35.486Z,102585.88
2023-04-03T13:21:16.773Z,102587.78
2023-04-03T13:23:51.510Z,102585.44
2023-04-03T13:26:23.553Z,102579.84
2023-04-03T13:28:53.776Z,102575.63
2023-04-03T13:31:27.448Z,102583.94
2023-04-03T13:34:28.888Z,102577.38
2023-04-03T13:37:01.490Z,102558.47
2023-04-03T13:39:36.663Z,102571.84
2023-04-03T13:42:21.597Z,102581.63
2023-04-03T13:44:48.846Z,102569.19
2023-04-03T13:47:24.517Z,102563.75
2023-04-03T13:50:14.509Z,102555.13
2023-04-03T13:52:54.049Z,102565.06
2023-04-03T13:55:34.571Z,102561.91
2023-04-03T13:58:24.420Z,102575.28
2023-04-03T14:01:17.362Z,102559.72
2023-04-03T14:03:57.617Z,102553.94
2023-04-03T14:06:25.686Z,102552.22
2023-04-03T14:08:53.232Z,102555.28
2023-04-03T14:11:26.353Z,102544.97
2023-04-03T14:13:53.998Z,102541.31
2023-04-03T14:16:25.024Z,102541.81
2023-04-03T14:18:52.444Z,102537.78
2023-04-03T14:21:22.195Z,102547.84
2023-04-03T14:23:49.847Z,102532.28
2023-04-03T14:26:21.801Z,102524.44
2023-04-03T14:28:53.204Z,102527.94
2023-04-03T14:31:22.136Z,102526.47
2023-04-03T14:33:49.962Z,102536.28
2023-04-03T14:36:22.894Z,102538.63
2023-04-03T14:38:50.815Z,102540.09
2023-04-03T14:41:21.953Z,102550.09
2023-04-03T14:43:49.191Z,102534.25
2023-04-03T14:46:18.154Z,102548.78
2023-04-03T14:48:46.082Z,102535.84
2023-04-03T14:51:15.712Z,102524.00
2023-04-03T14:53:45.730Z,102535.00
2023-04-03T14:56:23.187Z,102541.06
2023-04-03T14:58:55.215Z,102521.78
2023-04-03T15:01:22.379Z,102522.72
2023-04-03T15:03:49.575Z,102519.41
2023-04-03T15:06:17.019Z,102507.38
2023-04-03T15:08:46.187Z,102501.88
2023-04-03T15:11:13.788Z,102501.75
2023-04-03T15:13:41.123Z,102497.91
2023-04-03T15:16:19.932Z,102501.00
2023-04-03T15:18:48.294Z,102506.44
2023-04-03T15:21:16.230Z,102525.31
2023-04-03T15:23:44.055Z,102512.59
2023-04-03T15:26:11.102Z,102514.69
2023-04-03T15:28:42.463Z,102496.78
2023-04-03T15:31:11.050Z,102489.16
2023-04-03T15:33:38.489Z,102497.44
2023-04-03T15:36:07.581Z,102493.41
2023-04-03T15:38:35.179Z,102492.66
2023-04-03T15:41:03.767Z,102487.34
2023-04-03T15:43:31.088Z,102494.03
2023-04-03T15:46:00.584Z,102483.38
2023-04-03T15:48:29.415Z,102480.84
2023-04-03T15:50:57.902Z,102478.34
2023-04-03T15:53:26.095Z,102488.94
2023-04-03T15:55:53.142Z,102480.66
2023-04-03T15:58:20.058Z,102485.75
2023-04-03T16:00:47.152Z,102482.09
2023-04-03T16:03:20.146Z,102478.69
2023-04-03T16:05:47.761Z,102487.66
2023-04-03T16:08:15.339Z,102499.94
2023-04-03T16:10:42.428Z,102494.06
2023-04-03T16:13:14.715Z,102500.38
2023-04-03T16:15:42.700Z,102501.41
2023-04-03T16:18:18.048Z,102490.13
2023-04-03T16:20:45.081Z,102478.34
2023-04-03T16:23:12.994Z,102498.41
2023-04-03T16:25:40.104Z,102490.00
2023-04-03T16:28:07.551Z,102490.41
2023-04-03T16:30:34.728Z,102495.44
2023-04-03T16:33:01.798Z,102490.81
2023-04-03T16:35:28.903Z,102491.44
2023-04-03T16:37:55.957Z,102492.44
2023-04-03T16:40:22.900Z,102486.66
2023-04-03T16:42:49.919Z,102496.81
2023-04-03T16:45:17.100Z,102500.75
2023-04-03T16:47:44.047Z,102497.47
2023-04-03T16:50:11.689Z,102495.41
2023-04-03T16:52:38.802Z,102518.19
2023-04-03T16:55:06.504Z,102504.97
2023-04-03T16:57:33.458Z,102510.53
2023-04-03T17:00:00.419Z,102499.72
2023-04-03T17:02:27.581Z,102490.63
2023-04-03T17:04:55.260Z,102488.66
2023-04-03T17:07:24.659Z,102490.94
2023-04-03T17:09:52.570Z,102503.31
2023-04-03T17:12:19.486Z,102507.56
2023-04-03T17:14:47.826Z,102499.44
2023-04-03T17:17:22.877Z,102500.91
2023-04-03T17:19:50.305Z,102489.59
2023-04-03T17:22:18.195Z,102508.56
2023-04-03T17:24:45.612Z,102502.44
2023-04-03T17:27:13.485Z,102512.34
2023-04-03T17:29:40.397Z,102494.81
2023-04-03T17:32:07.382Z,102502.41
2023-04-03T17:34:34.340Z,102508.38
2023-04-03T17:37:01.390Z,102491.03
2023-04-03T17:39:28.317Z,102506.94
2023-04-03T17:41:55.240Z,102506.84
2023-04-03T17:44:22.925Z,102507.56
2023-04-03T17:46:50.078Z,102497.59
2023-04-03T17:49:18.878Z,102498.38
2023-04-03T17:51:45.911Z,102498.19
2023-04-03T17:54:12.986Z,102512.97
2023-04-03T17:56:40.314Z,102514.06
2023-04-03T17:59:07.253Z,102506.38
2023-04-03T18:01:36.771Z,102509.22
2023-04-03T18:04:06.228Z,102517.75
2023-04-03T18:06:41.015Z,102513.50
2023-04-03T18:09:19.144Z,102523.28
2023-04-03T18:11:47.773Z,102525.44
2023-04-03T18:14:19.026Z,102516.13
2023-04-03T18:16:46.321Z,102518.25
2023-04-03T18:19:22.545Z,102515.94
2023-04-03T18:21:52.257Z,102524.63
2023-04-03T18:24:20.895Z,102525.88
2023-04-03T18:26:57.282Z,102515.47
2023-04-03T18:29:24.594Z,102522.69
2023-04-03T18:31:56.329Z,102523.69
2023-04-03T18:34:24.493Z,102534.63
2023-04-03T18:36:52.356Z,102533.81
2023-04-03T18:39:19.525Z,102539.97
2023-04-03T18:41:48.064Z,102536.31
2023-04-03T18:44:19.580Z,102536.31
2023-04-03T18:46:46.903Z,102542.44
2023-04-03T18:49:15.193Z,102547.06
2023-04-03T18:51:42.332Z,102536.78
2023-04-03T18:54:10.095Z,102547.09
2023-04-03T18:56:37.909Z,102540.28
2023-04-03T18:59:05.695Z,102533.47
2023-04-03T19:01:34.385Z,102539.75
2023-04-03T19:04:02.220Z,102548.13
2023-04-03T19:06:29.404Z,102550.06
2023-04-03T19:08:56.593Z,102554.41
2023-04-03T19:11:30.274Z,102543.84
2023-04-03T19:16:41.879Z,102534.72
2023-04-03T19:19:09.054Z,102551.50
2023-04-03T19:21:40.773Z,102548.25
2023-04-03T19:24:10.878Z,102553.53
2023-04-03T19:26:38.985Z,102556.88
2023-04-03T19:29:06.289Z,102560.97
2023-04-03T19:31:34.096Z,102561.53
2023-04-03T19:34:02.606Z,102560.38
2023-04-03T19:36:30.577Z,102561.19
2023-04-03T19:38:58.537Z,102566.81
2023-04-03T19:41:29.622Z,102557.59
2023-04-03T19:43:57.212Z,102575.16
2023-04-03T19:46:27.501Z,102578.44
2023-04-03T19:48:55.019Z,102567.75
2023-04-03T19:51:22.107Z,102580.16
2023-04-03T19:53:49.110Z,102570.13
2023-04-03T19:56:16.991Z,102571.50
2023-04-03T19:58:44.704Z,102575.47
2023-04-03T20:01:11.744Z,102578.25
2023-04-03T20:03:39.216Z,102588.34
2023-04-03T20:06:06.425Z,102578.47
2023-04-03T20:08:33.769Z,102580.28
2023-04-03T20:11:00.754Z,102579.28
2023-04-03T20:13:27.799Z,102583.19
2023-04-03T20:15:54.870Z,102582.66
2023-04-03T20:18:22.271Z,102588.31
2023-04-03T20:21:01.808Z,102579.13
2023-04-03T20:23:29.684Z,102588.69
2023-04-03T20:26:09.240Z,102581.22
2023-04-03T20:28:39.968Z,102588.13
2023-04-03T20:31:11.977Z,102578.34
2023-04-03T20:33:39.276Z,102590.34
2023-04-03T20:36:06.523Z,102584.34
2023-04-03T20:38:33.433Z,102599.03
2023-04-03T20:41:00.515Z,102585.94
2023-04-03T20:43:28.448Z,102595.56
2023-04-03T20:45:55.651Z,102589.31
2023-04-03T20:48:22.689Z,102586.53
2023-04-03T20:50:49.759Z,102583.03
2023-04-03T20:53:19.005Z,102585.63
2023-04-03T20:56:00.723Z,102591.75
2023-04-03T20:58:30.672Z,102592.78
2023-04-03T21:00:57.933Z,102592.06
2023-04-03T21:03:30.371Z,102597.41
2023-04-03T21:06:00.544Z,102590.03
2023-04-03T21:09:23.988Z,102589.38
2023-04-03T21:12:47.328Z,102594.59
2023-04-03T21:15:55.021Z,102588.69
2023-04-03T21:18:40.315Z,102601.16
2023-04-03T21:21:17.566Z,102591.00
2023-04-03T21:23:47.409Z,102604.09
2023-04-03T21:26:14.896Z,102595.13
2023-04-03T21:28:42.774Z,102603.56
2023-04-03T21:31:11.816Z,102601.19
2023-04-03T21:33:39.615Z,102595.31
2023-04-03T21:36:07.698Z,102597.09
2023-04-03T21:38:35.733Z,102597.34
2023-04-03T21:41:05.245Z,102589.84
2023-04-03T21:43:32.341Z,102592.38
2023-04-03T21:46:00.033Z,102600.84
2023-04-03T21:48:30.935Z,102608.00
2023-04-03T21:51:05.395Z,102604.94
2023-04-03T21:53:34.594Z,102605.47
2023-04-03T21:56:02.723Z,102600.72
2023-04-03T21:58:33.782Z,102608.97
2023-04-03T22:01:11.436Z,102606.06
2023-04-03T22:03:39.026Z,102605.94
2023-04-03T22:06:06.116Z,102607.09
2023-04-03T22:08:33.752Z,102596.72
2023-04-03T22:11:14.481Z,102593.47
2023-04-03T22:13:43.367Z,102610.16
2023-04-03T22:16:12.460Z,102608.59
2023-04-03T22:18:39.605Z,102601.09
2023-04-03T22:21:08.391Z,102594.69
2023-04-03T22:23:35.910Z,102593.50
2023-04-03T22:26:13.299Z,102584.47
2023-04-03T22:28:46.690Z,102583.53
2023-04-03T22:31:16.277Z,102572.28
2023-04-03T22:33:45.463Z,102578.91
2023-04-03T22:36:27.112Z,102580.69
2023-04-03T22:38:54.460Z,102581.88
2023-04-03T22:41:22.181Z,102579.09
2023-04-03T22:43:49.473Z,102591.88
2023-04-03T22:46:17.266Z,102578.66
2023-04-03T22:48:49.791Z,102574.75
2023-04-03T22:51:16.751Z,102580.97
2023-04-03T22:53:43.686Z,102579.25
2023-04-03T22:56:11.081Z,102573.97
2023-04-03T22:58:39.164Z,102580.44
2023-04-03T23:01:10.058Z,102579.53
2023-04-03T23:03:50.214Z,102582.94
2023-04-03T23:06:17.254Z,102591.84
2023-04-03T23:08:44.822Z,102587.09
2023-04-03T23:11:12.161Z,102591.00
2023-04-03T23:13:50.289Z,102589.81
2023-04-03T23:16:17.444Z,102592.84
2023-04-03T23:18:44.424Z,102599.19
2023-04-03T23:21:11.650Z,102607.38
2023-04-03T23:23:45.743Z,102605.78
2023-04-03T23:26:12.765Z,102609.16
2023-04-03T23:28:41.841Z,102606.22
2023-04-03T23:31:10.258Z,102604.47
2023-04-03T23:33:38.659Z,102608.59
2023-04-03T23:36:09.524Z,102598.78
2023-04-03T23:38:43.843Z,102596.03
2023-04-03T23:41:11.023Z,102587.81
2023-04-03T23:43:39.672Z,102596.28
2023-04-03T23:46:06.761Z,102585.91
2023-04-03T23:48:33.750Z,102588.84
2023-04-03T23:51:00.739Z,102583.13
2023-04-03T23:53:28.353Z,102584.78
2023-04-03T23:55:58.734Z,102575.69
2023-04-03T23:58:25.722Z,102571.25
